sensor_id;sensor_type;location;lat;lon;timestamp;P1;durP1;ratioP1;P2;durP2;ratioP2
78820;SDS011;68171;13.882;99.692;2023-04-01T00:00:55;57.10;;;43.78;;
78820;SDS011;68171;13.882;99.692;2023-04-01T00:02:01;62.72;;;48.97;;
78820;SDS011;68171;13.882;99.692;2023-04-01T00:03:07;62.70;;;48.65;;
78820;SDS011;68171;13.882;99.692;2023-04-01T00:04:13;75.32;;;56.10;;
78820;SDS011;68171;13.882;99.692;2023-04-01T00:05:21;73.72;;;56.00;;
78820;SDS011;68171;13.882;99.692;2023-04-01T00:06:27;73.43;;;57.00;;
78820;SDS011;68171;13.882;99.692;2023-04-01T00:07:34;72.53;;;57.08;;
78820;SDS011;68171;13.882;99.692;2023-04-01T00:08:41;75.07;;;57.08;;
78820;SDS011;68171;13.882;99.692;2023-04-01T00:09:48;78.90;;;57.25;;
78820;SDS011;68171;13.882;99.692;2023-04-01T00:10:55;67.07;;;52.13;;
78820;SDS011;68171;13.882;99.692;2023-04-01T00:12:00;70.15;;;55.25;;
78820;SDS011;68171;13.882;99.692;2023-04-01T00:13:08;58.55;;;45.90;;
78820;SDS011;68171;13.882;99.692;2023-04-01T00:14:14;54.67;;;43.45;;
78820;SDS011;68171;13.882;99.692;2023-04-01T00:15:21;50.10;;;41.33;;
78820;SDS011;68171;13.882;99.692;2023-04-01T00:16:26;47.85;;;39.88;;
78820;SDS011;68171;13.882;99.692;2023-04-01T00:17:33;43.00;;;37.27;;
78820;SDS011;68171;13.882;99.692;2023-04-01T00:18:39;44.63;;;37.83;;
78820;SDS011;68171;13.882;99.692;2023-04-01T00:19:45;47.85;;;39.22;;
78820;SDS011;68171;13.882;99.692;2023-04-01T00:20:51;45.42;;;38.58;;
78820;SDS011;68171;13.882;99.692;2023-04-01T00:21:58;49.15;;;40.13;;
78820;SDS011;68171;13.882;99.692;2023-04-01T00:23:05;50.20;;;40.70;;
78820;SDS011;68171;13.882;99.692;2023-04-01T00:24:12;44.95;;;38.00;;
78820;SDS011;68171;13.882;99.692;2023-04-01T00:25:19;47.38;;;39.20;;
78820;SDS011;68171;13.882;99.692;2023-04-01T00:26:24;46.08;;;39.55;;
78820;SDS011;68171;13.882;99.692;2023-04-01T00:27:31;53.17;;;41.40;;
78820;SDS011;68171;13.882;99.692;2023-04-01T00:28:37;43.93;;;36.23;;
78820;SDS011;68171;13.882;99.692;2023-04-01T00:29:44;49.30;;;38.42;;
78820;SDS011;68171;13.882;99.692;2023-04-01T00:30:49;44.72;;;37.70;;
78820;SDS011;68171;13.882;99.692;2023-04-01T00:31:56;49.00;;;39.85;;
78820;SDS011;68171;13.882;99.692;2023-04-01T00:33:02;45.40;;;37.55;;
78820;SDS011;68171;13.882;99.692;2023-04-01T00:34:09;42.88;;;36.22;;
78820;SDS011;68171;13.882;99.692;2023-04-01T00:35:14;45.67;;;36.83;;
78820;SDS011;68171;13.882;99.692;2023-04-01T00:36:21;49.95;;;39.83;;
78820;SDS011;68171;13.882;99.692;2023-04-01T00:37:27;45.83;;;38.17;;
78820;SDS011;68171;13.882;99.692;2023-04-01T00:38:34;49.53;;;41.85;;
78820;SDS011;68171;13.882;99.692;2023-04-01T00:39:41;50.23;;;39.20;;
78820;SDS011;68171;13.882;99.692;2023-04-01T00:40:48;46.15;;;38.15;;
78820;SDS011;68171;13.882;99.692;2023-04-01T00:41:54;43.05;;;36.90;;
78820;SDS011;68171;13.882;99.692;2023-04-01T00:43:02;46.42;;;37.63;;
78820;SDS011;68171;13.882;99.692;2023-04-01T00:44:17;49.13;;;38.33;;
78820;SDS011;68171;13.882;99.692;2023-04-01T00:45:27;46.78;;;37.75;;
78820;SDS011;68171;13.882;99.692;2023-04-01T00:46:35;48.15;;;37.47;;
78820;SDS011;68171;13.882;99.692;2023-04-01T00:47:42;46.88;;;37.85;;
78820;SDS011;68171;13.882;99.692;2023-04-01T00:48:53;42.95;;;36.47;;
78820;SDS011;68171;13.882;99.692;2023-04-01T00:50:13;39.00;;;33.53;;
78820;SDS011;68171;13.882;99.692;2023-04-01T00:51:19;42.23;;;35.37;;
78820;SDS011;68171;13.882;99.692;2023-04-01T00:52:27;44.75;;;36.35;;
78820;SDS011;68171;13.882;99.692;2023-04-01T00:53:33;44.58;;;37.30;;
78820;SDS011;68171;13.882;99.692;2023-04-01T00:54:44;43.35;;;36.88;;
78820;SDS011;68171;13.882;99.692;2023-04-01T00:55:53;37.28;;;33.10;;
78820;SDS011;68171;13.882;99.692;2023-04-01T00:57:02;42.83;;;35.45;;
78820;SDS011;68171;13.882;99.692;2023-04-01T00:58:11;39.47;;;34.67;;
78820;SDS011;68171;13.882;99.692;2023-04-01T00:59:21;38.35;;;34.15;;
78820;SDS011;68171;13.882;99.692;2023-04-01T01:00:29;41.85;;;35.50;;
78820;SDS011;68171;13.882;99.692;2023-04-01T01:01:36;41.38;;;35.45;;
78820;SDS011;68171;13.882;99.692;2023-04-01T01:02:42;44.37;;;35.60;;
78820;SDS011;68171;13.882;99.692;2023-04-01T01:03:58;43.25;;;36.25;;
78820;SDS011;68171;13.882;99.692;2023-04-01T01:05:05;44.13;;;36.08;;
78820;SDS011;68171;13.882;99.692;2023-04-01T01:06:19;44.03;;;36.70;;
78820;SDS011;68171;13.882;99.692;2023-04-01T01:07:32;49.55;;;39.50;;
78820;SDS011;68171;13.882;99.692;2023-04-01T01:10:16;48.45;;;40.30;;
78820;SDS011;68171;13.882;99.692;2023-04-01T01:11:25;46.58;;;40.42;;
78820;SDS011;68171;13.882;99.692;2023-04-01T01:12:44;44.95;;;38.53;;
78820;SDS011;68171;13.882;99.692;2023-04-01T01:13:53;46.72;;;39.85;;
78820;SDS011;68171;13.882;99.692;2023-04-01T01:15:03;49.70;;;40.10;;
78820;SDS011;68171;13.882;99.692;2023-04-01T01:16:15;49.92;;;40.53;;
78820;SDS011;68171;13.882;99.692;2023-04-01T01:17:26;58.95;;;49.58;;
78820;SDS011;68171;13.882;99.692;2023-04-01T01:18:40;63.20;;;51.42;;
78820;SDS011;68171;13.882;99.692;2023-04-01T01:19:55;74.63;;;56.90;;
78820;SDS011;68171;13.882;99.692;2023-04-01T01:23:00;61.03;;;50.20;;
78820;SDS011;68171;13.882;99.692;2023-04-01T01:24:30;83.25;;;62.42;;
78820;SDS011;68171;13.882;99.692;2023-04-01T01:26:05;76.40;;;62.03;;
78820;SDS011;68171;13.882;99.692;2023-04-01T01:27:18;69.53;;;56.85;;
78820;SDS011;68171;13.882;99.692;2023-04-01T01:28:29;77.00;;;61.87;;
78820;SDS011;68171;13.882;99.692;2023-04-01T01:29:44;78.65;;;65.13;;
78820;SDS011;68171;13.882;99.692;2023-04-01T01:31:00;79.43;;;66.15;;
78820;SDS011;68171;13.882;99.692;2023-04-01T01:32:15;79.25;;;65.30;;
78820;SDS011;68171;13.882;99.692;2023-04-01T01:34:55;88.28;;;72.63;;
78820;SDS011;68171;13.882;99.692;2023-04-01T01:36:12;106.45;;;88.57;;
78820;SDS011;68171;13.882;99.692;2023-04-01T01:37:20;94.70;;;81.78;;
78820;SDS011;68171;13.882;99.692;2023-04-01T01:38:29;95.90;;;80.70;;
78820;SDS011;68171;13.882;99.692;2023-04-01T01:39:37;101.38;;;86.15;;
78820;SDS011;68171;13.882;99.692;2023-04-01T01:40:45;87.53;;;74.77;;
78820;SDS011;68171;13.882;99.692;2023-04-01T01:41:55;93.38;;;79.03;;
78820;SDS011;68171;13.882;99.692;2023-04-01T01:43:03;90.80;;;71.68;;
78820;SDS011;68171;13.882;99.692;2023-04-01T01:44:13;92.60;;;74.85;;
78820;SDS011;68171;13.882;99.692;2023-04-01T01:45:21;88.78;;;70.75;;
78820;SDS011;68171;13.882;99.692;2023-04-01T01:46:29;93.25;;;77.43;;
78820;SDS011;68171;13.882;99.692;2023-04-01T01:47:36;95.05;;;76.57;;
78820;SDS011;68171;13.882;99.692;2023-04-01T01:48:43;92.45;;;75.35;;
78820;SDS011;68171;13.882;99.692;2023-04-01T01:49:49;81.35;;;67.07;;
78820;SDS011;68171;13.882;99.692;2023-04-01T01:50:59;92.47;;;79.40;;
78820;SDS011;68171;13.882;99.692;2023-04-01T01:52:04;92.17;;;78.73;;
78820;SDS011;68171;13.882;99.692;2023-04-01T01:53:11;96.38;;;82.78;;
78820;SDS011;68171;13.882;99.692;2023-04-01T01:54:17;108.47;;;93.85;;
78820;SDS011;68171;13.882;99.692;2023-04-01T01:55:25;108.70;;;92.80;;
78820;SDS011;68171;13.882;99.692;2023-04-01T01:56:33;105.93;;;89.13;;
78820;SDS011;68171;13.882;99.692;2023-04-01T01:57:40;101.53;;;80.60;;
78820;SDS011;68171;13.882;99.692;2023-04-01T01:58:50;102.97;;;84.28;;
78820;SDS011;68171;13.882;99.692;2023-04-01T01:59:58;97.40;;;82.40;;
78820;SDS011;68171;13.882;99.692;2023-04-01T02:01:07;96.75;;;79.13;;
78820;SDS011;68171;13.882;99.692;2023-04-01T02:02:17;102.88;;;83.07;;
78820;SDS011;68171;13.882;99.692;2023-04-01T02:03:23;104.37;;;83.50;;
78820;SDS011;68171;13.882;99.692;2023-04-01T02:04:30;103.32;;;85.28;;
78820;SDS011;68171;13.882;99.692;2023-04-01T02:05:38;107.63;;;87.82;;
78820;SDS011;68171;13.882;99.692;2023-04-01T02:06:48;106.80;;;91.15;;
78820;SDS011;68171;13.882;99.692;2023-04-01T02:07:59;100.93;;;83.25;;
78820;SDS011;68171;13.882;99.692;2023-04-01T02:09:07;100.40;;;84.53;;
78820;SDS011;68171;13.882;99.692;2023-04-01T02:10:14;102.00;;;89.40;;
78820;SDS011;68171;13.882;99.692;2023-04-01T02:11:22;101.78;;;82.22;;
78820;SDS011;68171;13.882;99.692;2023-04-01T02:12:32;100.18;;;85.90;;
78820;SDS011;68171;13.882;99.692;2023-04-01T02:13:39;106.28;;;91.18;;
78820;SDS011;68171;13.882;99.692;2023-04-01T02:14:50;97.63;;;83.33;;
78820;SDS011;68171;13.882;99.692;2023-04-01T02:15:58;106.68;;;90.05;;
78820;SDS011;68171;13.882;99.692;2023-04-01T02:17:08;103.32;;;87.03;;
78820;SDS011;68171;13.882;99.692;2023-04-01T02:18:15;109.95;;;94.10;;
78820;SDS011;68171;13.882;99.692;2023-04-01T02:19:23;106.47;;;94.05;;
78820;SDS011;68171;13.882;99.692;2023-04-01T02:20:30;109.28;;;94.80;;
78820;SDS011;68171;13.882;99.692;2023-04-01T02:21:37;108.35;;;96.32;;
78820;SDS011;68171;13.882;99.692;2023-04-01T02:22:47;106.43;;;89.80;;
78820;SDS011;68171;13.882;99.692;2023-04-01T02:23:54;105.82;;;90.82;;
78820;SDS011;68171;13.882;99.692;2023-04-01T02:25:03;109.65;;;92.88;;
78820;SDS011;68171;13.882;99.692;2023-04-01T02:26:11;107.73;;;95.87;;
78820;SDS011;68171;13.882;99.692;2023-04-01T02:27:17;106.30;;;94.32;;
78820;SDS011;68171;13.882;99.692;2023-04-01T02:28:24;121.10;;;107.38;;
78820;SDS011;68171;13.882;99.692;2023-04-01T02:29:29;122.85;;;105.63;;
78820;SDS011;68171;13.882;99.692;2023-04-01T02:30:37;115.07;;;99.57;;
78820;SDS011;68171;13.882;99.692;2023-04-01T02:31:44;113.88;;;100.18;;
78820;SDS011;68171;13.882;99.692;2023-04-01T02:32:51;113.95;;;98.70;;
78820;SDS011;68171;13.882;99.692;2023-04-01T02:33:56;110.60;;;97.75;;
78820;SDS011;68171;13.882;99.692;2023-04-01T02:35:03;106.32;;;93.60;;
78820;SDS011;68171;13.882;99.692;2023-04-01T02:36:10;110.20;;;96.43;;
78820;SDS011;68171;13.882;99.692;2023-04-01T02:37:21;115.10;;;102.27;;
78820;SDS011;68171;13.882;99.692;2023-04-01T02:38:28;111.07;;;98.95;;
78820;SDS011;68171;13.882;99.692;2023-04-01T02:39:35;118.90;;;104.85;;
78820;SDS011;68171;13.882;99.692;2023-04-01T02:40:45;126.30;;;109.38;;
78820;SDS011;68171;13.882;99.692;2023-04-01T02:41:53;122.97;;;107.97;;
78820;SDS011;68171;13.882;99.692;2023-04-01T02:42:58;115.90;;;100.75;;
78820;SDS011;68171;13.882;99.692;2023-04-01T02:44:05;122.53;;;108.57;;
78820;SDS011;68171;13.882;99.692;2023-04-01T02:45:11;118.93;;;103.53;;
78820;SDS011;68171;13.882;99.692;2023-04-01T02:46:19;125.25;;;111.03;;
78820;SDS011;68171;13.882;99.692;2023-04-01T02:47:25;116.20;;;102.55;;
78820;SDS011;68171;13.882;99.692;2023-04-01T02:48:31;120.80;;;107.53;;
78820;SDS011;68171;13.882;99.692;2023-04-01T02:49:38;129.95;;;114.65;;
78820;SDS011;68171;13.882;99.692;2023-04-01T02:50:43;123.35;;;108.05;;
78820;SDS011;68171;13.882;99.692;2023-04-01T02:51:49;116.95;;;100.72;;
78820;SDS011;68171;13.882;99.692;2023-04-01T02:52:55;115.28;;;102.53;;
78820;SDS011;68171;13.882;99.692;2023-04-01T02:54:03;117.00;;;103.63;;
78820;SDS011;68171;13.882;99.692;2023-04-01T02:55:09;117.50;;;102.38;;
78820;SDS011;68171;13.882;99.692;2023-04-01T02:56:16;112.90;;;96.47;;
78820;SDS011;68171;13.882;99.692;2023-04-01T02:57:23;117.97;;;97.32;;
78820;SDS011;68171;13.882;99.692;2023-04-01T02:58:28;111.18;;;98.57;;
78820;SDS011;68171;13.882;99.692;2023-04-01T02:59:35;116.60;;;97.67;;
78820;SDS011;68171;13.882;99.692;2023-04-01T03:00:40;113.25;;;97.90;;
78820;SDS011;68171;13.882;99.692;2023-04-01T03:01:47;110.65;;;98.63;;
78820;SDS011;68171;13.882;99.692;2023-04-01T03:02:52;111.45;;;99.25;;
78820;SDS011;68171;13.882;99.692;2023-04-01T03:03:59;106.15;;;94.50;;
78820;SDS011;68171;13.882;99.692;2023-04-01T03:05:05;118.70;;;102.65;;
78820;SDS011;68171;13.882;99.692;2023-04-01T03:06:13;112.93;;;96.88;;
78820;SDS011;68171;13.882;99.692;2023-04-01T03:07:19;112.55;;;98.47;;
78820;SDS011;68171;13.882;99.692;2023-04-01T03:08:25;113.95;;;101.07;;
78820;SDS011;68171;13.882;99.692;2023-04-01T03:09:32;117.07;;;101.00;;
78820;SDS011;68171;13.882;99.692;2023-04-01T03:10:39;118.57;;;102.93;;
78820;SDS011;68171;13.882;99.692;2023-04-01T03:11:44;113.63;;;100.72;;
78820;SDS011;68171;13.882;99.692;2023-04-01T03:12:51;116.00;;;103.40;;
78820;SDS011;68171;13.882;99.692;2023-04-01T03:13:57;111.05;;;98.93;;
78820;SDS011;68171;13.882;99.692;2023-04-01T03:15:04;121.97;;;108.60;;
78820;SDS011;68171;13.882;99.692;2023-04-01T03:16:12;118.47;;;105.22;;
78820;SDS011;68171;13.882;99.692;2023-04-01T03:17:19;119.88;;;106.72;;
78820;SDS011;68171;13.882;99.692;2023-04-01T03:18:24;122.13;;;108.03;;
78820;SDS011;68171;13.882;99.692;2023-04-01T03:19:31;117.88;;;104.97;;
78820;SDS011;68171;13.882;99.692;2023-04-01T03:20:36;118.68;;;105.90;;
78820;SDS011;68171;13.882;99.692;2023-04-01T03:21:43;119.37;;;106.33;;
78820;SDS011;68171;13.882;99.692;2023-04-01T03:22:48;118.25;;;105.22;;
78820;SDS011;68171;13.882;99.692;2023-04-01T03:23:55;120.43;;;107.43;;
78820;SDS011;68171;13.882;99.692;2023-04-01T03:25:02;119.18;;;106.10;;
78820;SDS011;68171;13.882;99.692;2023-04-01T03:26:11;116.65;;;104.00;;
78820;SDS011;68171;13.882;99.692;2023-04-01T03:27:16;110.63;;;98.38;;
78820;SDS011;68171;13.882;99.692;2023-04-01T03:28:23;114.03;;;101.72;;
78820;SDS011;68171;13.882;99.692;2023-04-01T03:29:28;112.60;;;100.28;;
78820;SDS011;68171;13.882;99.692;2023-04-01T03:30:35;116.18;;;101.65;;
78820;SDS011;68171;13.882;99.692;2023-04-01T03:31:41;116.35;;;103.97;;
78820;SDS011;68171;13.882;99.692;2023-04-01T03:32:48;113.97;;;101.30;;
78820;SDS011;68171;13.882;99.692;2023-04-01T03:33:53;112.05;;;99.88;;
78820;SDS011;68171;13.882;99.692;2023-04-01T03:35:00;111.43;;;99.38;;
78820;SDS011;68171;13.882;99.692;2023-04-01T03:36:05;114.05;;;100.55;;
78820;SDS011;68171;13.882;99.692;2023-04-01T03:37:15;117.00;;;104.18;;
78820;SDS011;68171;13.882;99.692;2023-04-01T03:38:21;114.53;;;102.07;;
78820;SDS011;68171;13.882;99.692;2023-04-01T03:39:27;116.78;;;104.22;;
78820;SDS011;68171;13.882;99.692;2023-04-01T03:40:35;113.22;;;101.10;;
78820;SDS011;68171;13.882;99.692;2023-04-01T03:41:41;116.30;;;103.63;;
78820;SDS011;68171;13.882;99.692;2023-04-01T03:42:48;116.03;;;103.35;;
78820;SDS011;68171;13.882;99.692;2023-04-01T03:43:54;113.60;;;101.27;;
78820;SDS011;68171;13.882;99.692;2023-04-01T03:45:00;117.80;;;105.17;;
78820;SDS011;68171;13.882;99.692;2023-04-01T03:46:06;113.50;;;101.32;;
78820;SDS011;68171;13.882;99.692;2023-04-01T03:47:13;114.82;;;99.68;;
78820;SDS011;68171;13.882;99.692;2023-04-01T03:48:18;114.88;;;102.55;;
78820;SDS011;68171;13.882;99.692;2023-04-01T03:49:25;114.85;;;102.65;;
78820;SDS011;68171;13.882;99.692;2023-04-01T03:50:30;116.20;;;103.90;;
78820;SDS011;68171;13.882;99.692;2023-04-01T03:51:37;110.85;;;98.93;;
78820;SDS011;68171;13.882;99.692;2023-04-01T03:52:43;110.18;;;98.30;;
78820;SDS011;68171;13.882;99.692;2023-04-01T03:53:49;107.85;;;96.40;;
78820;SDS011;68171;13.882;99.692;2023-04-01T03:54:55;109.90;;;98.20;;
78820;SDS011;68171;13.882;99.692;2023-04-01T03:56:05;108.33;;;96.87;;
78820;SDS011;68171;13.882;99.692;2023-04-01T03:57:11;105.25;;;93.82;;
78820;SDS011;68171;13.882;99.692;2023-04-01T03:58:18;110.45;;;98.72;;
78820;SDS011;68171;13.882;99.692;2023-04-01T03:59:23;105.25;;;93.95;;
78820;SDS011;68171;13.882;99.692;2023-04-01T04:00:30;105.13;;;93.82;;
78820;SDS011;68171;13.882;99.692;2023-04-01T04:01:36;110.63;;;98.65;;
78820;SDS011;68171;13.882;99.692;2023-04-01T04:02:42;115.22;;;102.88;;
78820;SDS011;68171;13.882;99.692;2023-04-01T04:03:48;109.30;;;97.15;;
78820;SDS011;68171;13.882;99.692;2023-04-01T04:04:55;107.03;;;95.50;;
78820;SDS011;68171;13.882;99.692;2023-04-01T04:06:01;108.93;;;97.43;;
78820;SDS011;68171;13.882;99.692;2023-04-01T04:07:08;109.27;;;97.27;;
78820;SDS011;68171;13.882;99.692;2023-04-01T04:08:13;114.72;;;100.45;;
78820;SDS011;68171;13.882;99.692;2023-04-01T04:09:20;110.00;;;97.57;;
78820;SDS011;68171;13.882;99.692;2023-04-01T04:10:25;110.55;;;98.10;;
78820;SDS011;68171;13.882;99.692;2023-04-01T04:11:34;103.43;;;92.25;;
78820;SDS011;68171;13.882;99.692;2023-04-01T04:12:40;110.90;;;99.10;;
78820;SDS011;68171;13.882;99.692;2023-04-01T04:13:47;109.47;;;96.38;;
78820;SDS011;68171;13.882;99.692;2023-04-01T04:14:52;107.50;;;95.65;;
78820;SDS011;68171;13.882;99.692;2023-04-01T04:15:59;107.80;;;95.75;;
78820;SDS011;68171;13.882;99.692;2023-04-01T04:17:05;100.37;;;89.57;;
78820;SDS011;68171;13.882;99.692;2023-04-01T04:18:15;98.37;;;88.13;;
78820;SDS011;68171;13.882;99.692;2023-04-01T04:19:20;98.63;;;88.07;;
78820;SDS011;68171;13.882;99.692;2023-04-01T04:20:30;98.85;;;88.40;;
78820;SDS011;68171;13.882;99.692;2023-04-01T04:21:35;99.38;;;88.90;;
78820;SDS011;68171;13.882;99.692;2023-04-01T04:22:42;98.13;;;87.80;;
78820;SDS011;68171;13.882;99.692;2023-04-01T04:23:47;102.93;;;91.95;;
78820;SDS011;68171;13.882;99.692;2023-04-01T04:24:54;103.97;;;92.97;;
78820;SDS011;68171;13.882;99.692;2023-04-01T04:25:59;99.43;;;88.93;;
78820;SDS011;68171;13.882;99.692;2023-04-01T04:27:09;99.07;;;88.07;;
78820;SDS011;68171;13.882;99.692;2023-04-01T04:28:15;93.67;;;83.80;;
78820;SDS011;68171;13.882;99.692;2023-04-01T04:29:21;94.87;;;84.33;;
78820;SDS011;68171;13.882;99.692;2023-04-01T04:30:27;94.70;;;84.82;;
78820;SDS011;68171;13.882;99.692;2023-04-01T04:31:34;94.95;;;84.63;;
78820;SDS011;68171;13.882;99.692;2023-04-01T04:32:39;95.60;;;85.40;;
78820;SDS011;68171;13.882;99.692;2023-04-01T04:33:46;92.18;;;82.60;;
78820;SDS011;68171;13.882;99.692;2023-04-01T04:34:52;89.55;;;79.65;;
78820;SDS011;68171;13.882;99.692;2023-04-01T04:35:58;92.35;;;82.07;;
78820;SDS011;68171;13.882;99.692;2023-04-01T04:37:04;91.68;;;81.72;;
78820;SDS011;68171;13.882;99.692;2023-04-01T04:38:11;93.70;;;83.40;;
78820;SDS011;68171;13.882;99.692;2023-04-01T04:39:16;92.53;;;82.50;;
78820;SDS011;68171;13.882;99.692;2023-04-01T04:40:22;93.73;;;83.87;;
78820;SDS011;68171;13.882;99.692;2023-04-01T04:41:28;93.35;;;83.30;;
78820;SDS011;68171;13.882;99.692;2023-04-01T04:42:39;93.40;;;83.15;;
78820;SDS011;68171;13.882;99.692;2023-04-01T04:43:48;93.15;;;83.00;;
78820;SDS011;68171;13.882;99.692;2023-04-01T04:44:56;93.88;;;83.93;;
78820;SDS011;68171;13.882;99.692;2023-04-01T04:46:04;89.57;;;79.97;;
78820;SDS011;68171;13.882;99.692;2023-04-01T04:47:11;95.45;;;85.43;;
78820;SDS011;68171;13.882;99.692;2023-04-01T04:48:17;95.93;;;85.85;;
78820;SDS011;68171;13.882;99.692;2023-04-01T04:49:23;98.32;;;88.03;;
78820;SDS011;68171;13.882;99.692;2023-04-01T04:50:29;94.83;;;84.80;;
78820;SDS011;68171;13.882;99.692;2023-04-01T04:51:38;95.77;;;85.53;;
78820;SDS011;68171;13.882;99.692;2023-04-01T04:52:43;96.32;;;86.03;;
78820;SDS011;68171;13.882;99.692;2023-04-01T04:53:50;93.90;;;83.88;;
78820;SDS011;68171;13.882;99.692;2023-04-01T04:54:56;95.95;;;85.72;;
78820;SDS011;68171;13.882;99.692;2023-04-01T04:56:02;97.25;;;86.88;;
78820;SDS011;68171;13.882;99.692;2023-04-01T04:57:08;95.65;;;85.35;;
78820;SDS011;68171;13.882;99.692;2023-04-01T04:58:15;97.80;;;87.32;;
78820;SDS011;68171;13.882;99.692;2023-04-01T04:59:22;100.63;;;90.05;;
78820;SDS011;68171;13.882;99.692;2023-04-01T05:00:27;99.30;;;88.72;;
78820;SDS011;68171;13.882;99.692;2023-04-01T05:01:34;98.80;;;88.20;;
78820;SDS011;68171;13.882;99.692;2023-04-01T05:02:39;99.97;;;89.03;;
78820;SDS011;68171;13.882;99.692;2023-04-01T05:03:46;99.95;;;89.00;;
78820;SDS011;68171;13.882;99.692;2023-04-01T05:04:53;96.50;;;86.15;;
78820;SDS011;68171;13.882;99.692;2023-04-01T05:05:58;98.30;;;87.80;;
78820;SDS011;68171;13.882;99.692;2023-04-01T05:07:05;99.63;;;89.22;;
78820;SDS011;68171;13.882;99.692;2023-04-01T05:08:10;96.07;;;86.05;;
78820;SDS011;68171;13.882;99.692;2023-04-01T05:09:17;99.03;;;88.63;;
78820;SDS011;68171;13.882;99.692;2023-04-01T05:10:22;101.30;;;90.80;;
78820;SDS011;68171;13.882;99.692;2023-04-01T05:11:29;101.47;;;90.85;;
78820;SDS011;68171;13.882;99.692;2023-04-01T05:12:34;101.60;;;90.90;;
78820;SDS011;68171;13.882;99.692;2023-04-01T05:13:45;99.40;;;88.93;;
78820;SDS011;68171;13.882;99.692;2023-04-01T05:14:51;98.45;;;87.95;;
78820;SDS011;68171;13.882;99.692;2023-04-01T05:15:57;99.97;;;89.53;;
78820;SDS011;68171;13.882;99.692;2023-04-01T05:17:04;98.65;;;88.15;;
78820;SDS011;68171;13.882;99.692;2023-04-01T05:18:11;102.10;;;91.13;;
78820;SDS011;68171;13.882;99.692;2023-04-01T05:19:18;98.47;;;88.25;;
78820;SDS011;68171;13.882;99.692;2023-04-01T05:20:25;100.03;;;89.35;;
78820;SDS011;68171;13.882;99.692;2023-04-01T05:21:31;100.53;;;90.00;;
78820;SDS011;68171;13.882;99.692;2023-04-01T05:22:41;98.03;;;87.63;;
78820;SDS011;68171;13.882;99.692;2023-04-01T05:23:46;97.63;;;87.33;;
78820;SDS011;68171;13.882;99.692;2023-04-01T05:24:53;97.43;;;87.50;;
78820;SDS011;68171;13.882;99.692;2023-04-01T05:25:58;96.80;;;86.63;;
78820;SDS011;68171;13.882;99.692;2023-04-01T05:27:07;97.38;;;87.13;;
78820;SDS011;68171;13.882;99.692;2023-04-01T05:28:14;93.10;;;83.32;;
78820;SDS011;68171;13.882;99.692;2023-04-01T05:29:22;95.28;;;85.15;;
78820;SDS011;68171;13.882;99.692;2023-04-01T05:30:28;96.97;;;86.95;;
78820;SDS011;68171;13.882;99.692;2023-04-01T05:31:35;91.95;;;82.43;;
78820;SDS011;68171;13.882;99.692;2023-04-01T05:32:40;94.18;;;84.13;;
78820;SDS011;68171;13.882;99.692;2023-04-01T05:33:47;95.80;;;85.78;;
78820;SDS011;68171;13.882;99.692;2023-04-01T05:34:54;94.70;;;84.60;;
78820;SDS011;68171;13.882;99.692;2023-04-01T05:36:05;95.00;;;84.87;;
78820;SDS011;68171;13.882;99.692;2023-04-01T05:37:12;93.22;;;83.65;;
78820;SDS011;68171;13.882;99.692;2023-04-01T05:38:18;96.25;;;86.43;;
78820;SDS011;68171;13.882;99.692;2023-04-01T05:39:25;93.90;;;84.10;;
78820;SDS011;68171;13.882;99.692;2023-04-01T05:40:30;96.80;;;86.63;;
78820;SDS011;68171;13.882;99.692;2023-04-01T05:41:38;92.63;;;83.22;;
78820;SDS011;68171;13.882;99.692;2023-04-01T05:42:45;96.28;;;85.97;;
78820;SDS011;68171;13.882;99.692;2023-04-01T05:43:50;94.65;;;84.85;;
78820;SDS011;68171;13.882;99.692;2023-04-01T05:44:59;95.20;;;85.57;;
78820;SDS011;68171;13.882;99.692;2023-04-01T05:46:04;97.53;;;87.30;;
78820;SDS011;68171;13.882;99.692;2023-04-01T05:47:11;97.00;;;86.73;;
78820;SDS011;68171;13.882;99.692;2023-04-01T05:48:17;97.53;;;87.40;;
78820;SDS011;68171;13.882;99.692;2023-04-01T05:49:24;99.28;;;88.95;;
78820;SDS011;68171;13.882;99.692;2023-04-01T05:50:30;94.40;;;84.60;;
78820;SDS011;68171;13.882;99.692;2023-04-01T05:51:36;92.22;;;82.63;;
78820;SDS011;68171;13.882;99.692;2023-04-01T05:52:42;91.70;;;82.40;;
78820;SDS011;68171;13.882;99.692;2023-04-01T05:53:49;95.20;;;85.28;;
78820;SDS011;68171;13.882;99.692;2023-04-01T05:54:55;96.78;;;86.40;;
78820;SDS011;68171;13.882;99.692;2023-04-01T05:56:03;93.70;;;83.97;;
78820;SDS011;68171;13.882;99.692;2023-04-01T05:57:09;93.30;;;83.77;;
78820;SDS011;68171;13.882;99.692;2023-04-01T05:58:15;91.07;;;82.00;;
78820;SDS011;68171;13.882;99.692;2023-04-01T05:59:23;91.40;;;82.03;;
78820;SDS011;68171;13.882;99.692;2023-04-01T06:00:36;93.05;;;83.72;;
78820;SDS011;68171;13.882;99.692;2023-04-01T06:01:44;90.80;;;81.55;;
78820;SDS011;68171;13.882;99.692;2023-04-01T06:02:51;88.40;;;79.40;;
78820;SDS011;68171;13.882;99.692;2023-04-01T06:03:57;91.13;;;81.72;;
78820;SDS011;68171;13.882;99.692;2023-04-01T06:05:10;88.25;;;79.15;;
78820;SDS011;68171;13.882;99.692;2023-04-01T06:06:20;88.53;;;79.25;;
78820;SDS011;68171;13.882;99.692;2023-04-01T06:07:30;88.45;;;79.50;;
78820;SDS011;68171;13.882;99.692;2023-04-01T06:08:35;87.67;;;78.43;;
78820;SDS011;68171;13.882;99.692;2023-04-01T06:09:42;85.70;;;76.97;;
78820;SDS011;68171;13.882;99.692;2023-04-01T06:10:55;86.53;;;77.43;;
78820;SDS011;68171;13.882;99.692;2023-04-01T06:12:19;83.15;;;74.53;;
78820;SDS011;68171;13.882;99.692;2023-04-01T06:13:39;82.28;;;74.05;;
78820;SDS011;68171;13.882;99.692;2023-04-01T06:14:55;80.40;;;71.90;;
78820;SDS011;68171;13.882;99.692;2023-04-01T06:16:14;80.80;;;72.53;;
78820;SDS011;68171;13.882;99.692;2023-04-01T06:17:26;80.43;;;72.05;;
78820;SDS011;68171;13.882;99.692;2023-04-01T06:18:45;78.15;;;70.13;;
78820;SDS011;68171;13.882;99.692;2023-04-01T06:20:03;77.53;;;69.68;;
78820;SDS011;68171;13.882;99.692;2023-04-01T06:21:20;75.93;;;68.37;;
78820;SDS011;68171;13.882;99.692;2023-04-01T06:22:45;73.80;;;66.30;;
78820;SDS011;68171;13.882;99.692;2023-04-01T06:23:59;72.95;;;65.55;;
78820;SDS011;68171;13.882;99.692;2023-04-01T06:25:14;68.95;;;61.85;;
78820;SDS011;68171;13.882;99.692;2023-04-01T06:26:37;64.68;;;57.83;;
78820;SDS011;68171;13.882;99.692;2023-04-01T06:27:50;64.95;;;58.38;;
78820;SDS011;68171;13.882;99.692;2023-04-01T06:29:17;61.65;;;55.15;;
78820;SDS011;68171;13.882;99.692;2023-04-01T06:30:37;60.28;;;54.13;;
78820;SDS011;68171;13.882;99.692;2023-04-01T06:31:58;58.55;;;52.45;;
78820;SDS011;68171;13.882;99.692;2023-04-01T06:33:16;56.95;;;51.15;;
78820;SDS011;68171;13.882;99.692;2023-04-01T06:34:42;57.07;;;51.17;;